createdAt,value
2023-03-02T14:10:30.700Z,52.29
2023-03-02T14:11:31.136Z,52.59
2023-03-02T14:12:31.114Z,52.70
2023-03-02T14:13:31.290Z,52.29
2023-03-02T14:14:31.555Z,55.05
2023-03-02T14:15:31.598Z,55.26
2023-03-02T14:16:32.022Z,52.59
2023-03-02T14:17:33.289Z,53.62
2023-03-02T14:18:33.284Z,54.23
2023-03-02T14:19:33.506Z,52.59
2023-03-02T14:20:33.683Z,54.13
2023-03-02T14:21:34.215Z,54.03
2023-03-02T14:22:34.165Z,53.00
2023-03-02T14:23:34.204Z,54.16
2023-03-02T14:24:34.385Z,54.54
2023-03-02T14:25:34.635Z,55.26
2023-03-02T14:26:34.768Z,55.05
2023-03-02T14:27:35.044Z,53.54
2023-03-02T14:28:35.283Z,54.57
2023-03-02T14:29:35.232Z,54.05
2023-03-02T14:30:35.437Z,52.64
2023-03-02T14:31:36.040Z,54.38
2023-03-02T14:32:35.829Z,54.90
2023-03-02T14:33:35.985Z,54.49
2023-03-02T14:34:37.172Z,54.05
2023-03-02T14:35:37.267Z,54.90
2023-03-02T14:36:36.474Z,56.23
2023-03-02T14:37:36.670Z,56.02
2023-03-02T14:38:36.902Z,54.77
2023-03-02T14:39:37.144Z,56.02
2023-03-02T14:40:37.367Z,56.10
2023-03-02T14:41:43.983Z,55.92
2023-03-02T14:42:39.715Z,56.20
2023-03-02T14:43:37.913Z,57.94
2023-03-02T14:44:37.997Z,57.02
2023-03-02T14:45:38.209Z,56.38
2023-03-02T14:46:38.442Z,57.81
2023-03-02T14:47:38.657Z,55.97
2023-03-02T14:48:38.885Z,54.95
2023-03-02T14:49:39.084Z,56.18
2023-03-02T14:50:39.296Z,56.69
2023-03-02T14:51:39.498Z,56.48
2023-03-02T14:52:39.808Z,56.28
2023-03-02T14:53:39.918Z,57.61
2023-03-02T14:54:40.047Z,56.18
2023-03-02T14:55:40.220Z,56.41
2023-03-02T14:56:40.328Z,56.10
2023-03-02T14:57:40.552Z,56.20
2023-03-02T14:58:40.775Z,56.20
2023-03-02T14:59:40.974Z,57.23
2023-03-02T15:00:41.216Z,57.43
2023-03-02T15:01:41.318Z,56.00
2023-03-02T15:02:42.624Z,56.20
2023-03-02T15:03:41.661Z,57.02
2023-03-02T15:04:41.781Z,57.66
2023-03-02T15:05:44.220Z,56.23
2023-03-02T15:06:44.270Z,56.33
2023-03-02T15:07:42.328Z,57.15
2023-03-02T15:08:42.547Z,58.07
2023-03-02T15:09:42.830Z,57.76
2023-03-02T15:10:42.929Z,57.56
2023-03-02T15:11:43.231Z,56.84
2023-03-02T15:12:43.347Z,57.74
2023-03-02T15:13:45.693Z,57.56
2023-03-02T15:14:44.747Z,55.92
2023-03-02T15:15:44.044Z,56.02
2023-03-02T15:16:44.123Z,55.51
2023-03-02T15:17:44.373Z,55.30
2023-03-02T15:18:44.457Z,57.15
2023-03-02T15:19:44.723Z,57.66
2023-03-02T15:20:44.904Z,56.33
2023-03-02T15:21:45.004Z,56.33
2023-03-02T15:22:45.208Z,56.23
2023-03-02T15:23:45.458Z,56.95
2023-03-02T15:24:45.695Z,56.74
2023-03-02T15:25:45.914Z,57.46
2023-03-02T15:26:46.185Z,58.00
2023-03-02T15:27:46.420Z,57.56
2023-03-02T15:28:46.635Z,57.87
2023-03-02T15:29:46.779Z,57.79
2023-03-02T15:30:46.901Z,57.56
2023-03-02T15:31:47.090Z,57.66
2023-03-02T15:32:47.324Z,57.89
2023-03-02T15:33:47.436Z,58.40
2023-03-02T15:34:47.649Z,57.79
2023-03-02T15:35:47.961Z,57.38
2023-03-02T15:36:48.156Z,57.56
2023-03-02T15:37:48.276Z,57.38
2023-03-02T15:38:48.514Z,57.28
2023-03-02T15:39:48.623Z,58.12
2023-03-02T15:40:48.852Z,58.61
2023-03-02T15:41:48.974Z,59.77
2023-03-02T15:42:49.111Z,59.15
2023-03-02T15:43:49.342Z,58.84
2023-03-02T15:44:49.549Z,59.36
2023-03-02T15:45:50.921Z,59.66
2023-03-02T15:46:50.074Z,59.80
2023-03-02T15:47:50.222Z,59.69
2023-03-02T15:48:50.341Z,58.56
2023-03-02T15:49:50.589Z,59.08
2023-03-02T15:50:50.932Z,59.59
2023-03-02T15:51:51.047Z,59.28
2023-03-02T15:52:51.167Z,59.38
2023-03-02T15:53:51.315Z,59.80
2023-03-02T15:54:51.414Z,59.38
2023-03-02T15:55:51.581Z,59.08
2023-03-02T15:56:51.709Z,59.48
2023-03-02T15:57:51.941Z,60.10
2023-03-02T15:58:52.106Z,60.21
2023-03-02T15:59:52.255Z,59.80
2023-03-02T16:00:52.417Z,59.41
2023-03-02T16:01:52.636Z,59.82
2023-03-02T16:02:52.860Z,60.44
2023-03-02T16:03:52.928Z,60.23
2023-03-02T16:04:53.089Z,60.64
2023-03-02T16:05:53.248Z,62.39
2023-03-02T16:06:53.461Z,62.08
2023-03-02T16:07:53.615Z,64.26
2023-03-02T16:08:53.788Z,64.37
2023-03-02T16:09:53.948Z,65.80
2023-03-02T16:10:54.277Z,66.01
2023-03-02T16:11:54.308Z,66.25
2023-03-02T16:12:54.449Z,66.83
2023-03-02T16:13:54.633Z,67.44
2023-03-02T16:14:54.809Z,68.19
2023-03-02T16:15:54.972Z,67.68
2023-03-02T16:16:55.218Z,67.58
2023-03-02T16:17:55.279Z,67.68
2023-03-02T16:18:55.582Z,68.30
2023-03-02T16:19:55.745Z,68.71
2023-03-02T16:20:56.032Z,68.91
2023-03-02T16:21:56.041Z,69.12
2023-03-02T16:22:56.188Z,70.08
2023-03-02T16:23:56.342Z,69.36
2023-03-02T16:24:56.507Z,69.46
2023-03-02T16:25:56.656Z,69.56
2023-03-02T16:26:56.823Z,69.49
2023-03-02T16:27:56.963Z,69.90
2023-03-02T16:28:58.073Z,69.70
2023-03-02T16:29:57.277Z,70.01
2023-03-02T16:30:57.543Z,69.80
2023-03-02T16:31:57.732Z,70.83
2023-03-02T16:32:57.871Z,70.62
2023-03-02T16:33:58.020Z,70.62
2023-03-02T16:34:58.146Z,70.83
2023-03-02T16:35:58.293Z,72.06
2023-03-02T16:36:58.422Z,71.79
2023-03-02T16:37:58.653Z,73.23
2023-03-02T16:38:58.765Z,72.92
2023-03-02T16:40:31.488Z,73.02
2023-03-02T16:40:59.382Z,75.08
2023-03-02T16:41:59.589Z,74.98
2023-03-02T16:42:59.483Z,73.64
2023-03-02T16:43:59.631Z,74.46
2023-03-02T16:44:59.757Z,74.05
2023-03-02T16:45:59.998Z,75.18
2023-03-02T16:49:22.030Z,75.15
2023-03-02T16:50:22.165Z,75.63
2023-03-02T16:51:22.381Z,76.07
2023-03-02T16:52:22.569Z,75.87
2023-03-02T16:53:22.749Z,76.28
2023-03-02T16:54:23.003Z,77.31
2023-03-02T16:55:23.223Z,76.79
2023-03-02T16:56:23.436Z,76.49
2023-03-02T16:57:23.598Z,76.63
2023-03-02T16:58:23.792Z,76.90
2023-03-02T16:59:23.935Z,77.35
2023-03-02T17:00:24.117Z,77.55
2023-03-02T17:01:24.361Z,78.69
2023-03-02T17:02:24.391Z,78.48
2023-03-02T17:03:24.547Z,78.58
2023-03-02T17:04:24.775Z,78.41
2023-03-02T17:05:24.957Z,78.93
2023-03-02T17:06:25.150Z,78.93
2023-03-02T17:07:25.339Z,78.31
2023-03-02T17:08:25.488Z,78.41
2023-03-02T17:09:25.743Z,78.66
2023-03-02T17:10:25.820Z,80.00
2023-03-02T17:11:25.958Z,79.38
2023-03-02T17:12:26.125Z,80.00
2023-03-02T17:13:26.315Z,79.58
2023-03-02T17:14:26.487Z,79.79
2023-03-02T17:15:26.686Z,80.20
2023-03-02T17:16:26.878Z,80.51
2023-03-02T17:17:27.043Z,80.34
2023-03-02T17:18:27.188Z,80.04
2023-03-02T17:19:27.370Z,79.52
2023-03-02T17:20:27.557Z,80.90
2023-03-02T17:21:27.732Z,80.48
2023-03-02T17:22:27.897Z,80.48
2023-03-02T17:23:28.111Z,80.18
2023-03-02T17:24:28.267Z,80.28
2023-03-02T17:25:28.531Z,80.90
2023-03-02T17:26:28.662Z,80.69
2023-03-02T17:27:28.837Z,81.31
2023-03-02T17:28:28.973Z,81.82
2023-03-02T17:29:29.106Z,81.66
2023-03-02T17:30:29.242Z,81.93
2023-03-02T17:31:29.408Z,81.66
2023-03-02T17:32:29.683Z,81.96
2023-03-02T17:33:29.777Z,82.59
2023-03-02T17:34:29.930Z,81.66
2023-03-02T17:35:30.098Z,81.90
2023-03-02T17:36:30.244Z,83.45
2023-03-02T17:37:30.597Z,84.42
2023-03-02T17:38:30.630Z,84.52
2023-03-02T17:39:30.768Z,84.94
2023-03-02T17:40:30.895Z,85.45
2023-03-02T17:41:31.146Z,86.11
2023-03-02T17:42:31.244Z,86.32
2023-03-02T17:43:31.566Z,86.42
2023-03-02T17:44:31.687Z,86.32
2023-03-02T17:45:31.899Z,87.04
2023-03-02T17:46:32.114Z,86.63
2023-03-02T17:47:32.140Z,86.21
2023-03-02T17:48:32.358Z,86.94
2023-03-02T17:49:34.066Z,87.18
2023-03-02T17:50:34.277Z,87.39
2023-03-02T17:51:34.154Z,87.70
2023-03-02T17:52:34.345Z,87.49
2023-03-02T17:53:34.498Z,87.54
2023-03-02T17:54:34.606Z,87.74
2023-03-02T17:55:40.865Z,87.85
2023-03-02T17:56:35.848Z,88.46
2023-03-02T17:57:34.998Z,88.98
2023-03-02T17:58:44.771Z,88.30
2023-03-02T17:59:37.410Z,89.65
2023-03-02T18:00:35.577Z,89.34
2023-03-02T18:01:35.827Z,89.23
2023-03-02T18:02:36.034Z,89.75
2023-03-02T18:03:36.337Z,90.00
2023-03-02T18:04:36.466Z,89.54
2023-03-02T18:05:36.676Z,90.20
2023-03-02T18:06:36.942Z,90.72
2023-03-02T18:07:37.164Z,90.52
2023-03-02T18:08:37.255Z,90.83
2023-03-02T18:09:37.502Z,90.41
2023-03-02T18:10:37.600Z,90.04
2023-03-02T18:11:37.803Z,90.87
2023-03-02T18:12:38.062Z,91.70
2023-03-02T18:13:38.202Z,91.02
2023-03-02T18:14:38.324Z,91.33
2023-03-02T18:15:38.477Z,91.74
2023-03-02T18:16:38.604Z,91.22
2023-03-02T18:18:12.032Z,91.33
2023-03-02T18:18:39.165Z,91.64
2023-03-02T18:19:40.608Z,91.27
2023-03-02T18:20:39.226Z,92.16
2023-03-02T18:21:39.382Z,92.16
2023-03-02T18:22:39.553Z,92.20
2023-03-02T18:23:39.719Z,91.78
2023-03-02T18:24:39.841Z,92.26
2023-03-02T18:25:39.996Z,92.30
2023-03-02T18:26:40.207Z,91.89
2023-03-02T18:27:40.413Z,91.99
2023-03-02T18:28:40.609Z,92.20
2023-03-02T18:29:40.740Z,92.20
2023-03-02T18:30:40.849Z,92.10
2023-03-02T18:31:41.052Z,91.78
2023-03-02T18:32:41.242Z,92.41
2023-03-02T18:33:41.417Z,92.51
2023-03-02T18:34:41.613Z,93.02
2023-03-02T18:35:41.819Z,92.93
2023-03-02T18:36:41.968Z,93.85
2023-03-02T18:37:42.103Z,93.18
2023-03-02T18:38:42.277Z,92.93
2023-03-02T18:39:42.428Z,93.18
2023-03-02T18:40:42.558Z,93.49
2023-03-02T18:41:42.715Z,93.80
2023-03-02T18:42:42.845Z,94.11
2023-03-02T18:43:43.057Z,94.01
2023-03-02T18:44:43.220Z,93.90
2023-03-02T18:45:43.383Z,94.11
2023-03-02T18:46:43.557Z,93.70
2023-03-02T18:47:46.108Z,93.70
2023-03-02T18:48:43.867Z,94.21
2023-03-02T18:49:44.039Z,93.59
2023-03-02T18:50:44.173Z,93.70
2023-03-02T18:51:44.319Z,93.70
2023-03-02T18:52:44.518Z,94.11
2023-03-02T18:53:44.697Z,93.95
2023-03-02T18:54:44.877Z,94.21
2023-03-02T18:55:45.055Z,95.04
2023-03-02T18:56:45.265Z,94.01
2023-03-02T18:57:45.472Z,94.26
2023-03-02T18:58:45.627Z,94.46
2023-03-02T18:59:45.860Z,94.57
2023-03-02T19:00:46.022Z,94.57
2023-03-02T19:01:46.426Z,94.67
2023-03-02T19:02:46.374Z,95.29
2023-03-02T19:03:47.540Z,95.40
2023-03-02T19:04:46.648Z,94.71
2023-03-02T19:05:46.778Z,94.92
2023-03-02T19:06:46.913Z,94.51
2023-03-02T19:07:47.150Z,94.92
2023-03-02T19:08:47.246Z,94.92
2023-03-02T19:09:47.523Z,96.06
2023-03-02T19:10:47.654Z,95.65
2023-03-02T19:11:47.812Z,95.07
2023-03-02T19:12:47.954Z,96.00
2023-03-02T19:13:48.083Z,96.00
2023-03-02T19:14:48.317Z,96.00
2023-03-02T19:15:48.417Z,96.52
2023-03-02T19:16:48.746Z,96.94
2023-03-02T19:17:48.917Z,96.42
2023-03-02T19:18:49.053Z,96.42
2023-03-02T19:20:08.108Z,96.62
2023-03-02T19:20:51.870Z,96.83
2023-03-02T19:22:03.287Z,96.83
2023-03-02T19:22:49.869Z,97.04
2023-03-02T19:23:56.931Z,97.45
2023-03-02T19:25:23.313Z,97.67
2023-03-02T19:27:43.427Z,96.73
2023-03-02T19:28:43.595Z,96.62
2023-03-02T19:29:43.824Z,97.67
2023-03-02T19:30:43.958Z,96.83
2023-03-02T19:31:44.167Z,96.42
2023-03-02T19:32:44.351Z,96.94
2023-03-02T19:33:44.535Z,96.98
2023-03-02T19:34:44.673Z,96.62
2023-03-02T19:35:44.906Z,96.31
2023-03-02T19:36:45.022Z,96.52
2023-03-02T19:37:45.196Z,96.42
2023-03-02T19:38:45.326Z,96.21
2023-03-02T19:39:45.508Z,95.48
2023-03-02T19:40:45.690Z,96.00
2023-03-02T19:41:45.851Z,96.25
2023-03-02T19:42:46.000Z,96.98
2023-03-02T19:43:46.212Z,96.78
2023-03-02T19:44:46.428Z,96.78
2023-03-02T19:45:46.614Z,96.88
2023-03-02T19:46:46.794Z,95.53
2023-03-02T19:47:46.978Z,96.61
2023-03-02T19:48:47.138Z,96.55
2023-03-02T19:49:47.410Z,96.97
2023-03-02T19:50:47.468Z,97.59
2023-03-02T19:51:47.646Z,97.91
2023-03-02T19:52:47.886Z,98.11
2023-03-02T19:53:48.070Z,98.74
2023-03-02T19:54:48.241Z,99.05
2023-03-02T19:55:48.430Z,98.74
2023-03-02T19:56:48.637Z,99.36
2023-03-02T19:57:48.856Z,99.46
2023-03-02T19:58:49.076Z,98.99
2023-03-02T19:59:49.172Z,98.74
2023-03-02T20:00:49.494Z,99.57
2023-03-02T20:01:49.615Z,98.78
2023-03-02T20:02:49.696Z,98.16
2023-03-02T20:03:49.816Z,98.68
2023-03-02T20:04:49.998Z,98.99
2023-03-02T20:05:50.209Z,98.68
2023-03-02T20:06:50.444Z,99.45
2023-03-02T20:07:50.663Z,99.55
2023-03-02T20:08:50.867Z,99.24
2023-03-02T20:09:51.136Z,99.76
2023-03-02T20:10:51.353Z,99.98
2023-03-02T20:11:52.799Z,99.99
2023-03-02T20:12:53.046Z,99.99
2023-03-02T20:13:53.281Z,99.99
2023-03-02T20:14:53.296Z,99.99
2023-03-02T20:15:53.421Z,99.99
2023-03-02T20:16:53.576Z,99.99
2023-03-02T20:17:53.729Z,99.99
2023-03-02T20:18:53.936Z,99.99
2023-03-02T20:19:54.002Z,99.99
2023-03-02T20:20:54.269Z,99.99
2023-03-02T20:21:55.433Z,99.99
2023-03-02T20:22:54.654Z,99.99
2023-03-02T20:23:54.832Z,99.99
2023-03-02T20:24:55.032Z,99.99
2023-03-02T20:25:55.129Z,99.99
2023-03-02T20:26:55.377Z,99.36
2023-03-02T20:27:55.461Z,99.15
2023-03-02T20:28:55.557Z,99.46
2023-03-02T20:29:55.896Z,99.99
2023-03-02T20:30:56.220Z,99.57
2023-03-02T20:31:56.176Z,99.26
2023-03-02T20:32:56.472Z,99.26
2023-03-02T20:33:56.422Z,99.30
2023-03-02T20:34:56.690Z,98.84
2023-03-02T20:35:56.893Z,98.94
2023-03-02T20:36:57.012Z,98.84
2023-03-02T20:37:57.105Z,98.63
2023-03-02T20:38:57.337Z,98.78
2023-03-02T20:39:57.433Z,98.78
2023-03-02T20:40:57.716Z,98.88
2023-03-02T20:41:57.809Z,98.47
2023-03-02T20:43:30.635Z,99.62
2023-03-02T20:43:58.916Z,99.72
2023-03-02T20:44:58.692Z,99.99
2023-03-02T20:45:58.720Z,99.99
2023-03-02T20:46:58.960Z,99.99
2023-03-02T20:47:59.182Z,99.99
2023-03-02T20:48:59.422Z,99.99
2023-03-02T20:49:59.678Z,99.99
2023-03-02T20:50:59.906Z,99.99
2023-03-02T20:52:00.131Z,99.99
2023-03-02T20:53:00.359Z,99.99
2023-03-02T20:54:00.535Z,99.99
2023-03-02T20:55:00.795Z,99.99
2023-03-02T20:56:00.896Z,99.99
2023-03-02T20:57:01.116Z,99.99
2023-03-02T20:58:01.249Z,99.99
2023-03-02T20:59:01.557Z,99.99
2023-03-02T21:00:01.734Z,99.99
2023-03-02T21:01:01.881Z,99.77
2023-03-02T21:02:01.983Z,99.88
2023-03-02T21:03:02.232Z,99.99
2023-03-02T21:04:02.348Z,99.99
2023-03-02T21:05:02.674Z,99.88
2023-03-02T21:06:02.816Z,99.26
2023-03-02T21:07:02.920Z,99.67
2023-03-02T21:08:03.137Z,99.99
2023-03-02T21:09:03.371Z,99.99
2023-03-02T21:10:03.651Z,99.88
2023-03-02T21:11:03.697Z,99.05
2023-03-02T21:12:03.958Z,98.74
2023-03-02T21:13:04.214Z,99.36
2023-03-02T21:14:04.316Z,99.99
2023-03-02T21:15:04.604Z,99.57
2023-03-02T21:16:04.779Z,97.28
2023-03-02T21:17:04.840Z,97.70
2023-03-02T21:18:05.000Z,97.70
2023-03-02T21:19:05.096Z,96.97
2023-03-02T21:20:05.350Z,97.70
2023-03-02T21:21:05.592Z,97.91
2023-03-02T21:22:05.718Z,98.05
2023-03-02T21:23:05.940Z,98.47
2023-03-02T21:24:06.088Z,98.78
2023-03-02T21:25:06.204Z,98.16
2023-03-02T21:26:06.306Z,98.26
2023-03-02T21:27:06.555Z,99.20
2023-03-02T21:28:06.782Z,99.10
2023-03-02T21:29:06.944Z,99.30
2023-03-02T21:30:07.048Z,99.99
2023-03-02T21:31:07.328Z,99.99
2023-03-02T21:32:07.607Z,99.99
2023-03-02T21:33:07.684Z,99.72
2023-03-02T21:34:07.812Z,99.35
2023-03-02T21:35:07.970Z,99.72
2023-03-02T21:36:08.119Z,99.72
2023-03-02T21:37:08.231Z,99.99
2023-03-02T21:38:08.446Z,99.99
2023-03-02T21:39:08.561Z,99.99
2023-03-02T21:40:08.854Z,99.99
2023-03-02T21:41:08.959Z,99.99
2023-03-02T21:42:09.260Z,99.99
2023-03-02T21:43:09.414Z,99.99
2023-03-02T21:44:09.573Z,99.99
2023-03-02T21:45:09.733Z,99.99
2023-03-02T21:46:10.001Z,99.99
2023-03-02T21:47:10.019Z,99.99
2023-03-02T21:48:10.247Z,99.99
2023-03-02T21:49:10.416Z,99.99
2023-03-02T21:50:10.578Z,99.99
2023-03-02T21:51:10.765Z,99.99
2023-03-02T21:52:10.921Z,99.99
2023-03-02T21:53:11.061Z,99.99
2023-03-02T21:54:11.175Z,99.99
2023-03-02T21:55:11.422Z,99.99
2023-03-02T21:56:11.566Z,99.99
2023-03-02T21:57:11.678Z,99.99
2023-03-02T21:58:11.811Z,99.99
2023-03-02T21:59:11.925Z,99.99
2023-03-02T22:00:12.041Z,99.99
2023-03-02T22:01:14.062Z,99.99
2023-03-02T22:02:12.512Z,99.99
2023-03-02T22:03:12.687Z,99.99
2023-03-02T22:04:12.850Z,99.99
2023-03-02T22:05:12.991Z,99.99
2023-03-02T22:06:13.157Z,99.99
2023-03-02T22:07:13.313Z,99.99
2023-03-02T22:08:13.485Z,99.99
2023-03-02T22:09:13.593Z,99.99
2023-03-02T22:10:13.887Z,99.99
2023-03-02T22:11:14.045Z,99.99
2023-03-02T22:12:14.304Z,99.99
2023-03-02T22:13:14.467Z,99.99
2023-03-02T22:14:14.634Z,99.99
2023-03-02T22:15:14.754Z,99.99
2023-03-02T22:16:14.981Z,99.99
2023-03-02T22:17:15.055Z,99.99
2023-03-02T22:18:15.257Z,99.99
2023-03-02T22:19:48.011Z,99.99
2023-03-02T22:20:15.738Z,99.99
2023-03-02T22:21:16.200Z,99.99
2023-03-02T22:22:16.092Z,99.99
2023-03-02T22:23:16.210Z,99.99
2023-03-02T22:24:16.255Z,99.99
2023-03-02T22:25:16.394Z,99.99
2023-03-02T22:26:16.623Z,99.99
2023-03-02T22:27:16.845Z,99.99
2023-03-02T22:28:17.113Z,99.99
2023-03-02T22:29:17.268Z,99.99
2023-03-02T22:30:17.437Z,99.99
2023-03-02T22:31:17.638Z,99.99
2023-03-02T22:32:17.812Z,99.99
2023-03-02T22:33:17.974Z,99.99
2023-03-02T22:34:20.457Z,99.99
2023-03-02T22:35:19.355Z,99.99
2023-03-02T22:36:18.431Z,99.99
2023-03-02T22:37:18.657Z,99.99
2023-03-02T22:38:19.000Z,99.99
2023-03-02T22:39:19.080Z,99.99
2023-03-02T22:40:19.332Z,99.99
2023-03-02T22:41:19.448Z,99.99
2023-03-02T22:42:19.686Z,99.99
2023-03-02T22:43:19.885Z,99.99
2023-03-02T22:44:20.292Z,99.99
2023-03-02T22:45:20.273Z,99.99
2023-03-02T22:46:20.585Z,99.99
2023-03-02T22:47:20.656Z,99.99
2023-03-02T22:48:20.819Z,99.99
2023-03-02T22:49:20.929Z,99.99
2023-03-02T22:50:21.193Z,99.99
2023-03-02T22:51:21.354Z,99.99
2023-03-02T22:52:21.520Z,99.99
2023-03-02T22:53:21.720Z,99.99
2023-03-02T22:54:21.880Z,99.99
2023-03-02T22:55:22.011Z,99.99
2023-03-02T22:56:22.270Z,99.99
2023-03-02T22:57:22.482Z,99.99
2023-03-02T22:58:22.660Z,99.99
2023-03-02T22:59:22.758Z,99.99
2023-03-02T23:00:22.999Z,99.99
2023-03-02T23:01:23.285Z,99.99
2023-03-02T23:02:23.438Z,99.99
2023-03-02T23:03:23.584Z,99.99
2023-03-02T23:04:23.791Z,99.99
2023-03-02T23:05:23.798Z,99.99
2023-03-02T23:06:24.066Z,99.99
2023-03-02T23:07:24.217Z,99.99
2023-03-02T23:08:24.307Z,99.99
2023-03-02T23:09:24.497Z,99.99
2023-03-02T23:10:24.760Z,99.99
2023-03-02T23:11:24.903Z,99.99
2023-03-02T23:12:25.068Z,99.99
2023-03-02T23:13:27.254Z,99.99
2023-03-02T23:14:26.384Z,99.99
2023-03-02T23:15:25.481Z,99.99
2023-03-02T23:16:25.641Z,99.99
2023-03-02T23:17:25.787Z,99.99
2023-03-02T23:18:26.011Z,99.99
2023-03-02T23:19:26.151Z,99.99
2023-03-02T23:20:26.376Z,99.99
2023-03-02T23:21:28.245Z,99.99
2023-03-02T23:22:27.915Z,99.99
2023-03-02T23:23:26.994Z,99.99
2023-03-02T23:24:27.149Z,99.99
2023-03-02T23:25:27.243Z,99.99
2023-03-02T23:26:27.466Z,99.99
2023-03-02T23:27:27.652Z,99.99
2023-03-02T23:28:27.794Z,99.99
2023-03-02T23:29:27.902Z,99.99
2023-03-02T23:30:28.085Z,99.99
2023-03-02T23:31:28.229Z,99.99
2023-03-02T23:32:28.471Z,99.99
2023-03-02T23:33:28.522Z,99.99
2023-03-02T23:34:28.638Z,99.99
2023-03-02T23:35:28.914Z,99.99
2023-03-02T23:36:30.053Z,99.99
2023-03-02T23:37:29.343Z,99.99
2023-03-02T23:38:29.459Z,99.99
2023-03-02T23:39:29.607Z,99.99
2023-03-02T23:40:29.794Z,99.99
2023-03-02T23:41:30.013Z,99.99
2023-03-02T23:42:30.145Z,99.99
2023-03-02T23:43:30.435Z,99.99
2023-03-02T23:44:30.539Z,99.99
2023-03-02T23:45:30.848Z,99.99
2023-03-02T23:46:30.998Z,99.99
2023-03-02T23:47:31.228Z,99.99
2023-03-02T23:48:31.314Z,99.99
2023-03-02T23:49:31.700Z,99.99
2023-03-02T23:50:31.791Z,99.99
2023-03-02T23:51:31.957Z,99.99
2023-03-02T23:52:32.058Z,99.99
2023-03-02T23:53:32.268Z,99.99
2023-03-02T23:54:32.475Z,99.99
2023-03-02T23:55:32.668Z,99.99
2023-03-02T23:56:32.913Z,99.99
2023-03-02T23:57:33.150Z,99.99
2023-03-02T23:58:33.319Z,99.99
2023-03-02T23:59:33.576Z,99.99
